Time;durP1;ratioP1;P1;durP2;ratioP2;P2;SDS_P1;SDS_P2;PMS_P1;PMS_P2;Temp;Humidity;BMP_temperature;BMP_pressure;BME280_temperature;BME280_humidity;BME280_pressure;Samples;Min_cycle;Max_cycle;Signal;HPM_P1;HPM_P2
2022/08/25 00:01:54;;;;;;;15.30;9.20;;;22.20;99.90;;;;;;4995615;28;20439;-82
2022/08/25 00:04:23;;;;;;;14.55;10.48;;;22.20;99.90;;;;;;5010000;28;20393;-83
2022/08/25 00:06:52;;;;;;;50.83;23.75;;;22.20;99.90;;;;;;4999597;28;20480;-82
2022/08/25 00:09:23;;;;;;;35.22;20.98;;;22.10;99.90;;;;;;5009216;28;20483;-83
2022/08/25 00:11:52;;;;;;;16.90;9.93;;;22.00;99.90;;;;;;4993622;28;20758;-83
2022/08/25 00:14:23;;;;;;;14.25;9.63;;;22.10;99.90;;;;;;4994672;28;20432;-84
2022/08/25 00:16:52;;;;;;;15.77;9.38;;;22.10;99.90;;;;;;4993588;28;20499;-83
2022/08/25 00:19:26;;;;;;;14.70;9.00;;;22.00;99.90;;;;;;4977763;28;20444;-84
2022/08/25 00:21:55;;;;;;;12.53;8.70;;;22.00;99.90;;;;;;4993381;28;20452;-84
2022/08/25 00:24:23;;;;;;;14.25;9.73;;;22.10;99.90;;;;;;4993474;28;20516;-82
2022/08/25 00:26:54;;;;;;;14.30;9.38;;;22.10;99.90;;;;;;4994898;28;20395;-83
2022/08/25 00:29:26;;;;;;;12.43;9.00;;;22.00;99.90;;;;;;4994539;28;20409;-84
2022/08/25 00:31:56;;;;;;;13.85;8.93;;;21.90;99.90;;;;;;4977484;28;20815;-83
2022/08/25 00:34:32;;;;;;;13.23;8.73;;;21.90;99.90;;;;;;4993105;28;20419;-83
2022/08/25 00:37:02;;;;;;;14.80;9.35;;;21.90;99.90;;;;;;4988872;28;20503;-83
2022/08/25 00:39:30;;;;;;;13.85;8.55;;;21.80;99.90;;;;;;4994871;28;20828;-85
2022/08/25 00:41:58;;;;;;;15.68;8.73;;;21.80;99.90;;;;;;4993475;28;20417;-83
2022/08/25 00:44:30;;;;;;;85.03;23.67;;;21.80;99.90;;;;;;4994382;28;20385;-84
2022/08/25 00:47:00;;;;;;;13.45;8.88;;;21.80;99.90;;;;;;4990450;28;20417;-82
2022/08/25 00:49:37;;;;;;;12.60;8.23;;;21.70;99.90;;;;;;4994167;28;20416;-83
2022/08/25 00:52:10;;;;;;;13.75;9.02;;;21.80;99.90;;;;;;4991430;28;20417;-84
2022/08/25 00:54:44;;;;;;;14.95;10.10;;;21.80;99.90;;;;;;4992714;28;20412;-83
2022/08/25 00:57:15;;;;;;;12.90;9.13;;;21.70;99.90;;;;;;4989965;28;20401;-83
2022/08/25 00:59:45;;;;;;;15.67;10.50;;;21.70;99.90;;;;;;4969724;28;20427;-84
2022/08/25 01:02:14;;;;;;;11.90;8.40;;;21.60;99.90;;;;;;4993972;28;20419;-84
2022/08/25 01:04:44;;;;;;;11.07;8.55;;;21.60;99.90;;;;;;4993749;28;20436;-83
2022/08/25 01:07:18;;;;;;;13.68;8.73;;;21.60;99.90;;;;;;4990925;28;20393;-84
2022/08/25 01:09:48;;;;;;;15.05;8.88;;;21.60;99.90;;;;;;4992689;28;20405;-84
2022/08/25 01:12:16;;;;;;;12.30;8.48;;;21.50;99.90;;;;;;5009064;28;20941;-83
2022/08/25 01:14:45;;;;;;;16.20;8.85;;;21.50;99.90;;;;;;4993447;28;20396;-83
2022/08/25 01:17:13;;;;;;;14.90;9.45;;;21.50;99.90;;;;;;5008575;28;20411;-83
2022/08/25 01:19:41;;;;;;;12.75;8.65;;;21.50;99.90;;;;;;4992209;28;20405;-83
2022/08/25 01:22:10;;;;;;;14.10;9.37;;;21.50;99.90;;;;;;4992332;28;20408;-83
2022/08/25 01:24:49;;;;;;;13.53;9.27;;;21.50;99.90;;;;;;5008880;28;20401;-83
2022/08/25 01:27:17;;;;;;;14.05;8.55;;;21.50;99.90;;;;;;4991753;28;20401;-83
2022/08/25 01:29:44;;;;;;;16.85;9.05;;;21.50;99.90;;;;;;4992330;28;20427;-83
2022/08/25 01:32:13;;;;;;;14.05;9.23;;;21.50;99.90;;;;;;4976127;28;20410;-84
2022/08/25 01:34:44;;;;;;;11.88;9.52;;;21.50;99.90;;;;;;4993309;28;22240;-83
2022/08/25 01:37:14;;;;;;;14.48;9.38;;;21.40;99.90;;;;;;4993379;28;20429;-83
2022/08/25 01:39:43;;;;;;;12.75;8.93;;;21.40;99.90;;;;;;4990220;28;20795;-83
2022/08/25 01:42:38;;;;;;;13.38;8.43;;;21.40;99.90;;;;;;4970587;28;20412;-83
2022/08/25 01:45:07;;;;;;;14.75;9.20;;;21.30;99.90;;;;;;5006602;28;20879;-84
2022/08/25 01:47:36;;;;;;;12.57;8.73;;;21.40;99.90;;;;;;4992405;28;20385;-83
2022/08/25 01:50:05;;;;;;;13.55;9.18;;;21.30;99.90;;;;;;4991743;28;20440;-83
2022/08/25 01:52:45;;;;;;;18.13;9.48;;;21.30;99.90;;;;;;4992845;28;20467;-83
2022/08/25 01:55:13;;;;;;;14.18;8.93;;;21.20;99.90;;;;;;4993029;28;20535;-83
2022/08/25 01:57:41;;;;;;;13.77;8.75;;;21.10;99.90;;;;;;4991775;28;20405;-84
2022/08/25 02:00:12;;;;;;;14.70;9.30;;;21.10;99.90;;;;;;4993085;28;20400;-84
2022/08/25 02:02:41;;;;;;;13.63;9.02;;;21.20;99.90;;;;;;4991719;28;20409;-83
2022/08/25 02:05:12;;;;;;;15.30;9.23;;;21.20;99.90;;;;;;4991230;28;20795;-83
2022/08/25 02:07:41;;;;;;;14.07;9.23;;;21.20;99.90;;;;;;4991751;28;20407;-84
2022/08/25 02:10:12;;;;;;;15.33;9.60;;;21.20;99.90;;;;;;4992596;28;20452;-83
2022/08/25 02:12:40;;;;;;;14.07;8.90;;;21.10;99.90;;;;;;4992957;28;20393;-81
2022/08/25 02:15:08;;;;;;;15.65;9.90;;;21.10;99.90;;;;;;4992837;28;20396;-83
2022/08/25 02:17:38;;;;;;;14.32;8.93;;;21.10;99.90;;;;;;4992371;28;20405;-82
2022/08/25 02:20:09;;;;;;;16.10;8.48;;;20.90;99.90;;;;;;4991355;28;20772;-84
2022/08/25 02:22:37;;;;;;;31.40;12.50;;;21.00;99.90;;;;;;4988784;28;20891;-86
2022/08/25 02:25:10;;;;;;;21.13;10.82;;;20.90;99.90;;;;;;4991298;28;20441;-85
2022/08/25 02:27:38;;;;;;;15.27;9.35;;;20.80;99.90;;;;;;4999510;28;20405;-84
2022/08/25 02:30:06;;;;;;;18.40;10.43;;;20.80;99.90;;;;;;4972842;28;20500;-85
2022/08/25 02:32:33;;;;;;;15.90;10.10;;;20.80;99.90;;;;;;4973032;28;20414;-85
2022/08/25 02:35:01;;;;;;;14.70;10.40;;;20.80;99.90;;;;;;4987856;28;20721;-85
2022/08/25 02:37:29;;;;;;;30.23;10.65;;;20.90;99.90;;;;;;4992148;28;20443;-84
2022/08/25 02:39:58;;;;;;;15.87;9.80;;;20.80;99.90;;;;;;4997887;28;20409;-85
2022/08/25 02:42:26;;;;;;;17.23;11.05;;;20.80;99.90;;;;;;5007082;28;20447;-83
2022/08/25 02:44:54;;;;;;;15.05;10.13;;;20.80;99.90;;;;;;4987769;28;20397;-83
2022/08/25 02:47:22;;;;;;;17.92;10.73;;;20.80;99.90;;;;;;4990777;28;20393;-85
2022/08/25 02:49:54;;;;;;;17.60;10.98;;;20.70;99.90;;;;;;4991873;28;20404;-84
2022/08/25 02:52:22;;;;;;;17.40;10.90;;;20.80;99.90;;;;;;4991706;28;20508;-84
2022/08/25 02:54:50;;;;;;;18.60;10.75;;;20.70;99.90;;;;;;5005611;28;20507;-84
2022/08/25 02:57:17;;;;;;;17.10;10.20;;;20.80;99.90;;;;;;4986950;28;20414;-84
2022/08/25 02:59:47;;;;;;;16.60;10.70;;;20.80;99.90;;;;;;4991937;28;20419;-85
2022/08/25 03:02:15;;;;;;;15.07;9.77;;;20.80;99.90;;;;;;4988507;28;20462;-84
2022/08/25 03:04:43;;;;;;;19.23;11.20;;;20.90;99.90;;;;;;4974790;28;20451;-84
2022/08/25 03:07:12;;;;;;;19.58;11.73;;;20.80;99.90;;;;;;4998489;28;20402;-84
2022/08/25 03:09:41;;;;;;;23.17;12.63;;;20.80;99.90;;;;;;4988057;28;20935;-84
2022/08/25 03:12:10;;;;;;;22.20;11.98;;;20.70;99.90;;;;;;4990690;28;20385;-84
2022/08/25 03:14:39;;;;;;;22.80;12.15;;;20.60;99.90;;;;;;4991800;28;20491;-85
2022/08/25 03:17:09;;;;;;;18.73;11.50;;;20.50;99.90;;;;;;5003418;28;20810;-85
2022/08/25 03:19:37;;;;;;;18.38;11.18;;;20.60;99.90;;;;;;4990763;28;20456;-84
2022/08/25 03:22:05;;;;;;;19.60;11.50;;;20.60;99.90;;;;;;4994305;28;20886;-85
2022/08/25 03:24:33;;;;;;;20.50;12.75;;;20.60;99.90;;;;;;4991005;28;20457;-85
2022/08/25 03:27:01;;;;;;;23.52;12.40;;;20.60;99.90;;;;;;4991756;28;20484;-86
2022/08/25 03:29:32;;;;;;;21.30;12.95;;;20.60;99.90;;;;;;4997645;28;20504;-85
2022/08/25 03:32:00;;;;;;;22.58;13.20;;;20.60;99.90;;;;;;5001103;28;20405;-84
2022/08/25 03:34:29;;;;;;;20.02;12.50;;;20.50;99.90;;;;;;4995452;28;20400;-84
2022/08/25 03:36:58;;;;;;;23.42;12.48;;;20.50;99.90;;;;;;4995565;28;20480;-85
2022/08/25 03:39:26;;;;;;;20.42;11.75;;;20.50;99.90;;;;;;5008897;28;20945;-84
2022/08/25 03:41:54;;;;;;;19.75;11.88;;;20.40;99.90;;;;;;4995774;28;20477;-85
2022/08/25 03:44:21;;;;;;;17.38;12.13;;;20.50;99.90;;;;;;5004745;28;20991;-85
2022/08/25 03:46:51;;;;;;;19.02;12.68;;;20.50;99.90;;;;;;4994369;28;20458;-85
2022/08/25 03:49:21;;;;;;;22.67;12.52;;;20.50;99.90;;;;;;4984649;28;20819;-85
2022/08/25 03:51:51;;;;;;;25.20;14.73;;;20.50;99.90;;;;;;4994121;28;20416;-85
2022/08/25 03:54:22;;;;;;;21.38;11.93;;;20.40;99.90;;;;;;4991248;28;20402;-85
2022/08/25 03:56:51;;;;;;;23.23;12.63;;;20.40;99.90;;;;;;4970021;28;20402;-84
2022/08/25 03:59:19;;;;;;;19.25;12.60;;;20.40;99.90;;;;;;4978608;28;20405;-84
2022/08/25 04:01:47;;;;;;;18.88;11.52;;;20.40;99.90;;;;;;4995039;28;20902;-84
2022/08/25 04:04:21;;;;;;;24.30;13.02;;;20.40;99.90;;;;;;4996619;28;20420;-84
2022/08/25 04:06:49;;;;;;;21.95;11.95;;;20.30;99.90;;;;;;4994398;28;20473;-84
2022/08/25 04:09:17;;;;;;;25.67;13.27;;;20.40;99.90;;;;;;4994955;28;20405;-84
2022/08/25 04:11:45;;;;;;;24.30;11.60;;;20.30;99.90;;;;;;5007850;28;20823;-85
2022/08/25 04:14:19;;;;;;;20.00;11.45;;;20.30;99.90;;;;;;4966903;28;20745;-84
2022/08/25 04:16:47;;;;;;;25.87;11.83;;;20.30;99.90;;;;;;5005747;28;20409;-85
2022/08/25 04:19:15;;;;;;;21.65;11.55;;;20.20;99.90;;;;;;4993697;28;20800;-85
2022/08/25 04:21:43;;;;;;;22.42;12.73;;;20.30;99.90;;;;;;4994424;28;20502;-84
2022/08/25 04:24:12;;;;;;;23.55;12.13;;;20.30;99.90;;;;;;4995024;28;20408;-85
2022/08/25 04:26:46;;;;;;;20.85;11.48;;;20.20;99.90;;;;;;4999319;28;20480;-83
2022/08/25 04:29:17;;;;;;;21.25;11.43;;;20.20;99.90;;;;;;4994600;28;20420;-83
2022/08/25 04:31:48;;;;;;;24.42;12.20;;;20.10;99.90;;;;;;4994527;28;20409;-84
2022/08/25 04:34:19;;;;;;;23.17;11.70;;;20.10;99.90;;;;;;4994418;28;20767;-83
2022/08/25 04:36:57;;;;;;;23.50;12.40;;;20.10;99.90;;;;;;4994262;28;20449;-83
2022/08/25 04:39:25;;;;;;;21.00;11.52;;;20.10;99.90;;;;;;4993168;28;20404;-85
2022/08/25 04:41:53;;;;;;;24.35;12.43;;;20.20;99.90;;;;;;4994314;28;20520;-85
2022/08/25 04:44:21;;;;;;;22.92;11.90;;;20.20;99.90;;;;;;4993009;28;20413;-85
2022/08/25 04:46:49;;;;;;;26.55;11.68;;;20.30;99.90;;;;;;4992840;28;20409;-85
2022/08/25 04:49:17;;;;;;;19.35;11.30;;;20.40;99.90;;;;;;5000473;28;20408;-83
2022/08/25 04:51:45;;;;;;;23.08;11.45;;;20.30;99.90;;;;;;4991060;28;20411;-85
2022/08/25 04:54:21;;;;;;;24.48;12.10;;;20.30;99.90;;;;;;4994457;28;20400;-84
2022/08/25 04:56:50;;;;;;;19.33;10.98;;;20.30;99.90;;;;;;5008252;28;20471;-85
2022/08/25 04:59:25;;;;;;;20.50;11.50;;;20.30;99.90;;;;;;4993427;28;20929;-84
2022/08/25 05:02:00;;;;;;;35.17;12.93;;;20.20;99.90;;;;;;4992630;28;20730;-85
2022/08/25 05:04:30;;;;;;;27.25;12.70;;;20.30;99.90;;;;;;4992249;28;20829;-85
2022/08/25 05:06:58;;;;;;;25.20;12.35;;;20.40;99.90;;;;;;4992128;28;20399;-84
2022/08/25 05:09:27;;;;;;;20.42;12.25;;;20.40;99.90;;;;;;4994091;28;20381;-84
2022/08/25 05:11:59;;;;;;;19.43;11.20;;;20.40;99.90;;;;;;5002349;28;20401;-84
2022/08/25 05:14:28;;;;;;;23.42;11.50;;;20.40;99.90;;;;;;4993512;28;20412;-85
2022/08/25 05:16:56;;;;;;;20.05;12.43;;;20.40;99.90;;;;;;4993607;28;20417;-84
2022/08/25 05:19:25;;;;;;;21.48;11.77;;;20.50;99.90;;;;;;4992407;28;20579;-84
2022/08/25 05:21:53;;;;;;;24.40;12.32;;;20.50;99.90;;;;;;4993408;28;20504;-85
2022/08/25 05:24:25;;;;;;;20.42;12.07;;;20.50;99.90;;;;;;4989036;28;20413;-84
2022/08/25 05:26:53;;;;;;;20.60;12.00;;;20.50;99.90;;;;;;4990018;28;20911;-85
2022/08/25 05:29:21;;;;;;;17.50;11.52;;;20.60;99.90;;;;;;4992017;28;20411;-83
2022/08/25 05:31:49;;;;;;;22.48;12.00;;;20.50;99.90;;;;;;4999509;28;20444;-84
2022/08/25 05:34:18;;;;;;;21.92;12.43;;;20.60;99.90;;;;;;5000935;28;20481;-84
2022/08/25 05:36:47;;;;;;;29.55;12.73;;;20.70;99.90;;;;;;5006361;28;20428;-83
2022/08/25 05:39:15;;;;;;;26.35;12.88;;;20.60;99.90;;;;;;4991833;28;20389;-84
2022/08/25 05:41:43;;;;;;;18.48;12.15;;;20.70;99.90;;;;;;4991931;28;20405;-84
2022/08/25 05:44:12;;;;;;;21.30;12.15;;;20.60;99.90;;;;;;4999846;28;20417;-85
2022/08/25 05:46:44;;;;;;;19.73;11.50;;;20.70;99.90;;;;;;4992978;28;20405;-84
2022/08/25 05:49:11;;;;;;;21.70;11.75;;;20.70;99.90;;;;;;4992681;28;20401;-84
2022/08/25 05:51:39;;;;;;;20.92;11.82;;;20.60;99.90;;;;;;4991279;28;20410;-84
2022/08/25 05:54:07;;;;;;;19.52;11.98;;;20.60;99.90;;;;;;4993237;28;20417;-85
2022/08/25 05:56:35;;;;;;;21.90;12.30;;;20.60;99.90;;;;;;4992618;28;20463;-83
2022/08/25 05:59:02;;;;;;;23.77;12.30;;;20.70;99.90;;;;;;5007511;28;21046;-85
2022/08/25 06:04:22;;;;;;;19.88;12.23;;;20.60;99.90;;;;;;4991104;28;20405;-84
2022/08/25 06:06:53;;;;;;;25.27;12.68;;;20.60;99.90;;;;;;4992945;28;20468;-84
2022/08/25 06:09:23;;;;;;;21.40;11.70;;;20.60;99.90;;;;;;4992690;28;20405;-84
2022/08/25 06:11:51;;;;;;;20.90;12.07;;;20.60;99.90;;;;;;5004876;28;20397;-83
2022/08/25 06:14:22;;;;;;;20.02;11.10;;;20.70;99.90;;;;;;4992536;28;20412;-85
2022/08/25 06:16:50;;;;;;;17.33;10.03;;;20.70;99.90;;;;;;4991103;28;20409;-84
2022/08/25 06:19:19;;;;;;;17.58;10.60;;;20.80;99.90;;;;;;4992279;28;20413;-84
2022/08/25 06:21:48;;;;;;;20.75;10.68;;;20.70;99.90;;;;;;4988528;28;20494;-84
2022/08/25 06:24:15;;;;;;;17.73;10.50;;;20.70;99.90;;;;;;4988038;28;20421;-84
2022/08/25 06:26:43;;;;;;;17.58;10.05;;;20.70;99.90;;;;;;4992227;28;20448;-85
2022/08/25 06:29:12;;;;;;;17.05;9.82;;;20.80;99.90;;;;;;4991073;28;20405;-84
2022/08/25 06:31:41;;;;;;;17.27;9.82;;;20.80;99.90;;;;;;4974206;28;20419;-84
2022/08/25 06:34:10;;;;;;;15.00;9.57;;;20.80;99.90;;;;;;4992113;28;20396;-84
2022/08/25 06:36:38;;;;;;;19.48;10.73;;;20.80;99.90;;;;;;4991823;28;20439;-84
2022/08/25 06:39:06;;;;;;;20.30;10.45;;;20.90;99.90;;;;;;5001273;28;20955;-83
2022/08/25 06:41:37;;;;;;;17.87;10.50;;;20.90;99.90;;;;;;4990791;28;20415;-84
2022/08/25 06:44:05;;;;;;;19.80;10.48;;;20.90;99.90;;;;;;4990705;28;20444;-85
2022/08/25 06:46:33;;;;;;;19.20;10.23;;;20.90;99.90;;;;;;4992042;28;20478;-84
2022/08/25 06:49:04;;;;;;;19.17;10.20;;;21.00;99.90;;;;;;4992083;28;20392;-85
2022/08/25 06:51:34;;;;;;;19.27;10.38;;;21.00;99.90;;;;;;4990034;28;20756;-85
2022/08/25 06:54:04;;;;;;;18.25;10.13;;;21.00;99.90;;;;;;4991430;28;20392;-84
2022/08/25 06:56:33;;;;;;;18.95;9.60;;;21.00;99.90;;;;;;5001010;28;20875;-84
2022/08/25 06:59:05;;;;;;;19.20;10.20;;;21.00;99.90;;;;;;4985289;28;20434;-86
2022/08/25 07:01:33;;;;;;;18.98;9.82;;;21.00;99.90;;;;;;4990573;28;20467;-85
2022/08/25 07:04:04;;;;;;;19.25;10.13;;;21.10;99.90;;;;;;4991457;28;20410;-85
2022/08/25 07:06:39;;;;;;;18.55;9.63;;;21.10;99.90;;;;;;4991808;28;20412;-84
2022/08/25 07:09:09;;;;;;;15.63;9.43;;;21.10;99.90;;;;;;4991756;28;20455;-86
2022/08/25 07:11:41;;;;;;;18.17;8.98;;;21.10;99.90;;;;;;5006643;28;20732;-86
2022/08/25 07:14:11;;;;;;;17.30;9.17;;;21.10;99.90;;;;;;4991643;28;20415;-86
2022/08/25 07:16:41;;;;;;;17.85;9.27;;;21.10;99.90;;;;;;4990500;28;20452;-87
2022/08/25 07:19:19;;;;;;;16.88;9.13;;;21.10;99.90;;;;;;4990772;28;20957;-85
2022/08/25 07:21:51;;;;;;;17.02;9.50;;;21.10;99.90;;;;;;5006897;28;20409;-87
2022/08/25 07:24:19;;;;;;;17.73;8.45;;;21.10;99.90;;;;;;4988280;28;20412;-85
2022/08/25 07:26:47;;;;;;;22.40;9.82;;;21.10;99.90;;;;;;4974971;28;20415;-87
2022/08/25 07:29:19;;;;;;;15.18;9.15;;;21.10;99.90;;;;;;5005760;28;20504;-86
2022/08/25 07:31:59;;;;;;;15.02;8.90;;;21.20;99.90;;;;;;5001085;28;20490;-86
2022/08/25 07:37:21;;;;;;;18.20;8.70;;;21.20;99.90;;;;;;4991664;28;20492;-86
2022/08/25 07:40:22;;;;;;;15.07;8.05;;;21.10;99.90;;;;;;4977602;28;20397;-86
2022/08/25 07:42:54;;;;;;;18.08;7.95;;;21.20;99.90;;;;;;4991536;28;20470;-86
2022/08/25 07:45:29;;;;;;;13.88;8.02;;;21.10;99.90;;;;;;4987113;28;20447;-84
2022/08/25 07:48:01;;;;;;;14.45;7.57;;;21.20;99.90;;;;;;4990454;28;20412;-87
2022/08/25 07:50:30;;;;;;;15.57;7.30;;;21.20;99.90;;;;;;4990342;28;20899;-84
2022/08/25 07:52:59;;;;;;;18.63;7.85;;;21.30;99.90;;;;;;4991435;28;20409;-86
2022/08/25 07:55:29;;;;;;;17.25;7.25;;;21.30;99.90;;;;;;4991369;28;20771;-85
2022/08/25 07:57:58;;;;;;;16.67;7.25;;;21.30;99.90;;;;;;4987715;28;20904;-85
2022/08/25 08:00:30;;;;;;;14.30;7.30;;;21.40;99.90;;;;;;4985948;28;20411;-84
2022/08/25 08:03:00;;;;;;;15.50;7.47;;;21.40;99.90;;;;;;5009329;28;20404;-86
2022/08/25 08:05:30;;;;;;;14.45;7.43;;;21.60;99.90;;;;;;4991555;28;20497;-86
2022/08/25 08:07:59;;;;;;;16.42;7.30;;;21.70;99.90;;;;;;4974918;28;20406;-86
2022/08/25 08:10:27;;;;;;;11.98;6.55;;;21.70;99.90;;;;;;5009440;28;20899;-87
2022/08/25 08:13:15;;;;;;;14.35;6.80;;;21.80;99.90;;;;;;4990787;28;20972;-85
2022/08/25 08:15:46;;;;;;;15.43;6.45;;;21.80;99.90;;;;;;4984589;28;20406;-87
2022/08/25 08:18:14;;;;;;;15.88;6.68;;;21.70;99.90;;;;;;4993625;28;20486;-86
2022/08/25 08:20:44;;;;;;;17.60;6.60;;;21.70;99.90;;;;;;5008430;28;20433;-87
2022/08/25 08:23:13;;;;;;;14.57;6.72;;;21.80;99.90;;;;;;4994799;28;20942;-86
2022/08/25 08:25:40;;;;;;;13.55;6.53;;;21.90;99.90;;;;;;4993375;28;20479;-84
2022/08/25 08:28:08;;;;;;;15.25;6.65;;;21.90;99.90;;;;;;5010273;28;20389;-85
2022/08/25 08:30:37;;;;;;;14.57;6.50;;;21.90;99.90;;;;;;5009585;28;20432;-85
2022/08/25 08:33:05;;;;;;;15.07;6.60;;;21.90;99.90;;;;;;4993411;28;20416;-86
2022/08/25 08:35:40;;;;;;;13.07;6.47;;;21.80;99.90;;;;;;5008926;28;20404;-86
2022/08/25 08:38:08;;;;;;;11.85;6.38;;;21.80;99.90;;;;;;4976732;28;20448;-85
2022/08/25 08:44:36;;;;;;;16.05;6.72;;;21.90;99.90;;;;;;4991707;28;20415;-86
2022/08/25 08:47:10;;;;;;;13.95;6.60;;;21.90;99.90;;;;;;4977155;28;20835;-85
2022/08/25 08:49:44;;;;;;;15.18;6.55;;;22.00;99.90;;;;;;4993184;28;20838;-86
2022/08/25 08:52:16;;;;;;;14.90;7.20;;;22.10;99.90;;;;;;4992850;28;20413;-86
2022/08/25 08:54:49;;;;;;;17.67;6.97;;;22.20;99.90;;;;;;4993621;28;20966;-85
2022/08/25 08:57:24;;;;;;;13.57;6.57;;;22.20;99.90;;;;;;4994406;28;20409;-86
2022/08/25 08:59:58;;;;;;;17.48;7.03;;;22.20;99.90;;;;;;5003048;28;20902;-84
2022/08/25 09:02:38;;;;;;;15.90;6.97;;;22.20;99.90;;;;;;4991815;28;20410;-84
2022/08/25 09:05:21;;;;;;;14.17;7.13;;;22.30;99.90;;;;;;4985351;28;20504;-86
2022/08/25 09:08:12;;;;;;;14.35;7.13;;;22.30;99.90;;;;;;4990058;28;20393;-88
2022/08/25 09:11:02;;;;;;;17.02;7.35;;;22.30;99.90;;;;;;4991350;28;20791;-84
2022/08/25 09:13:59;;;;;;;14.15;7.15;;;22.30;99.90;;;;;;4988955;28;20465;-85
2022/08/25 09:16:58;;;;;;;17.13;7.53;;;22.30;99.90;;;;;;4964238;28;20429;-86
2022/08/25 09:20:02;;;;;;;12.33;7.10;;;22.20;99.90;;;;;;5002199;28;20440;-86
2022/08/25 09:22:51;;;;;;;14.18;7.25;;;22.30;99.90;;;;;;4964529;28;20858;-87
2022/08/25 09:25:30;;;;;;;17.40;7.30;;;22.30;99.90;;;;;;4992420;28;20770;-87
2022/08/25 09:28:49;;;;;;;16.38;7.65;;;22.40;99.90;;;;;;4990273;28;20402;-86
2022/08/25 09:31:26;;;;;;;16.30;8.63;;;22.30;99.90;;;;;;4988349;28;20415;-86
2022/08/25 09:33:58;;;;;;;18.60;8.10;;;22.30;99.90;;;;;;4991937;28;20416;-86
2022/08/25 09:36:27;;;;;;;17.17;8.23;;;22.20;99.90;;;;;;4993211;28;20954;-84
2022/08/25 09:38:55;;;;;;;21.17;8.70;;;22.20;99.90;;;;;;4992110;28;20505;-84
2022/08/25 09:41:55;;;;;;;27.98;9.43;;;22.20;99.90;;;;;;4991405;28;20520;-85
2022/08/25 09:44:40;;;;;;;21.83;9.15;;;22.20;99.90;;;;;;4991313;28;20412;-85
2022/08/25 09:47:26;;;;;;;13.95;8.40;;;22.20;99.90;;;;;;4992697;28;20422;-85
2022/08/25 09:50:00;;;;;;;15.77;8.60;;;22.20;99.90;;;;;;5006336;28;20514;-85
2022/08/25 09:52:37;;;;;;;19.88;8.55;;;22.20;99.90;;;;;;4990257;28;20405;-85
2022/08/25 09:55:08;;;;;;;16.85;8.82;;;22.20;99.90;;;;;;4978511;28;20425;-86
2022/08/25 09:57:42;;;;;;;15.23;8.68;;;22.20;99.90;;;;;;5000692;28;20413;-86
2022/08/25 10:00:18;;;;;;;13.07;8.03;;;22.20;99.90;;;;;;4991682;28;20419;-84
2022/08/25 10:03:09;;;;;;;12.93;8.27;;;22.20;99.90;;;;;;4998779;28;20471;-85
2022/08/25 10:05:57;;;;;;;16.05;8.00;;;22.30;99.90;;;;;;4974106;28;20442;-85
2022/08/25 10:08:45;;;;;;;15.65;8.18;;;22.30;99.90;;;;;;5004574;28;20415;-85
2022/08/25 10:11:29;;;;;;;16.87;8.57;;;22.30;99.90;;;;;;4973423;28;20437;-85
2022/08/25 10:14:18;;;;;;;13.95;8.68;;;22.30;99.90;;;;;;4990612;28;20784;-85
2022/08/25 10:17:08;;;;;;;20.67;8.68;;;22.30;99.90;;;;;;4992696;28;20393;-83
2022/08/25 10:19:36;;;;;;;15.05;8.70;;;22.30;99.90;;;;;;4983955;28;20800;-85
2022/08/25 10:22:10;;;;;;;15.17;8.60;;;22.20;99.90;;;;;;4972289;28;20869;-84
2022/08/25 10:24:40;;;;;;;14.50;8.40;;;22.30;99.90;;;;;;4977172;28;20408;-83
2022/08/25 10:27:34;;;;;;;17.13;8.98;;;22.30;99.90;;;;;;4996339;28;20421;-84
2022/08/25 10:30:22;;;;;;;13.50;8.38;;;22.20;99.90;;;;;;4984466;28;20424;-84
2022/08/25 10:33:14;;;;;;;12.55;8.38;;;22.20;99.90;;;;;;4985506;28;20416;-85
2022/08/25 10:35:58;;;;;;;11.68;8.20;;;22.20;99.90;;;;;;4980550;28;20398;-84
2022/08/25 10:38:35;;;;;;;12.33;7.80;;;22.20;99.90;;;;;;4982059;28;20419;-84
2022/08/25 10:41:29;;;;;;;13.30;8.73;;;22.20;99.90;;;;;;4980586;28;20395;-84
2022/08/25 10:45:41;;;;;;;15.10;8.25;;;22.20;99.90;;;;;;4984916;28;20894;-84
2022/08/25 10:47:44;;;;;;;11.77;7.40;;;22.20;99.90;;;;;;4982810;28;20390;-84
2022/08/25 10:50:25;;;;;;;13.45;7.32;;;22.20;99.90;;;;;;4971033;28;20409;-84
2022/08/25 10:52:57;;;;;;;14.73;8.65;;;22.20;99.90;;;;;;4963731;28;20409;-84
2022/08/25 10:55:48;;;;;;;15.43;8.85;;;22.30;99.90;;;;;;5001265;28;20432;-83
2022/08/25 10:58:42;;;;;;;14.82;8.25;;;22.20;99.90;;;;;;4991031;28;20409;-83
2022/08/25 11:01:44;;;;;;;15.43;8.73;;;22.20;99.90;;;;;;4991254;28;20917;-85
2022/08/25 11:04:36;;;;;;;15.20;8.50;;;22.20;99.90;;;;;;5006706;28;20492;-83
2022/08/25 11:07:27;;;;;;;16.10;9.20;;;22.20;99.90;;;;;;5007242;28;20439;-83
2022/08/25 11:10:04;;;;;;;15.50;8.57;;;22.30;99.90;;;;;;4990765;28;20397;-83
2022/08/25 11:12:41;;;;;;;14.90;8.60;;;22.20;99.90;;;;;;4991908;28;20755;-82
2022/08/25 11:15:19;;;;;;;16.70;8.85;;;22.20;99.90;;;;;;4990858;28;20475;-84
2022/08/25 11:17:52;;;;;;;16.45;9.30;;;22.20;99.90;;;;;;5006862;28;20425;-83
2022/08/25 11:20:32;;;;;;;15.57;8.73;;;22.20;99.90;;;;;;5007087;28;20484;-84
2022/08/25 11:23:19;;;;;;;15.20;9.27;;;22.20;99.90;;;;;;4990642;28;20400;-83
2022/08/25 11:26:00;;;;;;;15.68;8.25;;;22.20;99.90;;;;;;5006444;28;20919;-83
2022/08/25 11:28:42;;;;;;;17.15;9.15;;;22.10;99.90;;;;;;5006839;28;20415;-84
2022/08/25 11:31:13;;;;;;;17.17;8.65;;;22.10;99.90;;;;;;5007125;28;20417;-84
2022/08/25 11:33:43;;;;;;;14.65;8.75;;;22.20;99.90;;;;;;5007053;28;20785;-84
2022/08/25 11:36:32;;;;;;;13.25;8.20;;;22.00;99.90;;;;;;4991056;28;20397;-84
2022/08/25 11:39:00;;;;;;;17.17;9.45;;;22.00;99.90;;;;;;5010949;28;20444;-84
2022/08/25 11:41:51;;;;;;;38.22;12.13;;;22.00;99.90;;;;;;5010770;28;20408;-84
2022/08/25 11:44:44;;;;;;;25.40;11.55;;;22.00;99.90;;;;;;5010595;28;20395;-84
2022/08/25 11:47:57;;;;;;;22.45;10.82;;;22.00;99.90;;;;;;5009618;28;20521;-83
2022/08/25 11:50:31;;;;;;;21.88;10.10;;;21.90;99.90;;;;;;5010495;28;20858;-83
2022/08/25 11:53:26;;;;;;;21.95;10.38;;;21.80;99.90;;;;;;4994154;28;20400;-84
2022/08/25 11:56:04;;;;;;;17.75;10.25;;;21.70;99.90;;;;;;5010366;28;20396;-84
2022/08/25 11:58:37;;;;;;;21.02;11.27;;;21.80;99.90;;;;;;4995506;28;20423;-84
2022/08/25 12:01:38;;;;;;;23.75;11.52;;;21.70;99.90;;;;;;4986455;28;20405;-84
2022/08/25 12:04:31;;;;;;;19.63;11.33;;;21.70;99.90;;;;;;4945282;28;20888;-85
2022/08/25 12:07:21;;;;;;;19.13;11.63;;;21.60;99.90;;;;;;4982261;28;20414;-85
2022/08/25 12:09:50;;;;;;;18.48;11.20;;;21.70;99.90;;;;;;4999307;28;20429;-85
2022/08/25 12:12:28;;;;;;;20.88;11.55;;;21.60;99.90;;;;;;4979028;28;20426;-84
2022/08/25 12:15:22;;;;;;;22.98;11.98;;;21.60;99.90;;;;;;4999684;28;20411;-84
2022/08/25 12:18:08;;;;;;;16.50;10.85;;;21.60;99.90;;;;;;4985306;28;20423;-85
2022/08/25 12:20:56;;;;;;;21.10;11.00;;;21.40;99.90;;;;;;4993903;28;20427;-85
2022/08/25 12:24:01;;;;;;;20.77;10.90;;;21.40;99.90;;;;;;4993821;28;20389;-84
2022/08/25 12:26:49;;;;;;;20.25;10.52;;;21.40;99.90;;;;;;4965725;28;20455;-83
2022/08/25 12:29:34;;;;;;;18.38;10.50;;;21.10;99.90;;;;;;4994953;28;20431;-84
2022/08/25 12:32:24;;;;;;;16.17;10.32;;;21.20;99.90;;;;;;4977640;28;20394;-85
2022/08/25 12:35:28;;;;;;;25.27;11.75;;;21.20;99.90;;;;;;4990608;28;20498;-85
2022/08/25 12:38:13;;;;;;;26.70;11.30;;;21.00;99.90;;;;;;4994838;28;20397;-84
2022/08/25 12:40:46;;;;;;;24.10;11.77;;;20.90;99.90;;;;;;4994826;28;20440;-83
2022/08/25 12:43:33;;;;;;;15.10;8.40;;;20.80;99.90;;;;;;4989825;28;20497;-83
2022/08/25 12:46:22;;;;;;;13.50;7.68;;;20.70;99.90;;;;;;4991504;28;20436;-83
2022/08/25 12:49:29;;;;;;;18.38;8.60;;;20.80;99.90;;;;;;4987146;28;20961;-84
2022/08/25 12:52:12;;;;;;;18.35;9.43;;;20.90;99.90;;;;;;5009501;28;20404;-83
2022/08/25 12:54:48;;;;;;;18.25;9.38;;;20.90;99.90;;;;;;4992616;28;20400;-84
2022/08/25 12:57:22;;;;;;;17.25;9.27;;;20.90;99.90;;;;;;4989445;28;20395;-85
2022/08/25 12:59:58;;;;;;;17.67;9.93;;;20.90;99.90;;;;;;4975200;28;20395;-83
2022/08/25 13:02:56;;;;;;;18.17;10.02;;;20.80;99.90;;;;;;4975164;28;20456;-82
2022/08/25 13:05:40;;;;;;;14.60;9.38;;;20.80;99.90;;;;;;4989710;28;20406;-83
2022/08/25 13:08:37;;;;;;;12.37;8.20;;;20.60;99.90;;;;;;4973670;28;20395;-83
2022/08/25 13:11:29;;;;;;;11.63;8.20;;;20.70;99.90;;;;;;4974719;28;20430;-83
2022/08/25 13:14:16;;;;;;;10.85;7.35;;;20.70;99.90;;;;;;4974856;28;20395;-82
2022/08/25 13:17:05;;;;;;;16.97;9.27;;;20.80;99.90;;;;;;4997902;28;20398;-82
2022/08/25 13:19:37;;;;;;;13.15;8.48;;;20.80;99.90;;;;;;4986088;28;20479;-82
2022/08/25 13:22:18;;;;;;;13.57;9.77;;;20.60;99.90;;;;;;5008694;28;20420;-83